createdAt,value
2022-09-15T00:00:30.397Z,99251.25
2022-09-15T00:03:32.246Z,99244.59
2022-09-15T00:06:34.465Z,99226.97
2022-09-15T00:09:36.260Z,99221.69
2022-09-15T00:12:38.057Z,99198.41
2022-09-15T00:15:39.859Z,99188.94
2022-09-15T00:18:41.655Z,99151.25
2022-09-15T00:21:43.505Z,99151.84
2022-09-15T00:24:46.052Z,99168.81
2022-09-15T00:27:47.849Z,99160.47
2022-09-15T00:30:53.489Z,99164.56
2022-09-15T00:33:56.281Z,99208.34
2022-09-15T00:36:58.126Z,99208.00
2022-09-15T00:39:59.968Z,99224.03
2022-09-15T00:43:01.789Z,99235.38
2022-09-15T00:46:03.723Z,99240.88
2022-09-15T00:49:09.805Z,99270.56
2022-09-15T00:52:16.136Z,99277.84
2022-09-15T00:55:22.738Z,99282.06
2022-09-15T00:58:26.143Z,99280.34
2022-09-15T01:01:28.148Z,99274.47
2022-09-15T01:04:30.038Z,99273.66
2022-09-15T01:07:36.153Z,99276.84
2022-09-15T01:10:38.847Z,99272.69
2022-09-15T01:13:40.643Z,99281.31
2022-09-15T01:16:45.496Z,99284.22
2022-09-15T01:20:01.037Z,99273.75
2022-09-15T01:23:23.722Z,99273.00
2022-09-15T01:26:44.212Z,99260.13
2022-09-15T01:29:52.205Z,99272.75
2022-09-15T01:33:06.729Z,99275.53
2022-09-15T01:36:13.855Z,99278.88
2022-09-15T01:39:20.875Z,99264.69
2022-09-15T01:42:22.655Z,99263.31
2022-09-15T01:45:29.958Z,99260.44
2022-09-15T01:48:31.753Z,99266.63
2022-09-15T01:51:33.585Z,99272.50
2022-09-15T01:54:36.122Z,99272.69
2022-09-15T01:57:37.896Z,99280.91
2022-09-15T02:00:41.751Z,99280.59
2022-09-15T02:03:49.204Z,99269.81
2022-09-15T02:06:57.142Z,99284.19
2022-09-15T02:10:01.643Z,99279.47
2022-09-15T02:13:17.016Z,99275.88
2022-09-15T02:16:20.225Z,99272.50
2022-09-15T02:19:23.330Z,99265.72
2022-09-15T02:22:29.612Z,99275.34
2022-09-15T02:25:32.773Z,99278.53
2022-09-15T02:28:36.608Z,99278.41
2022-09-15T02:31:39.412Z,99280.91
2022-09-15T02:34:42.325Z,99284.56
2022-09-15T02:37:44.107Z,99287.75
2022-09-15T02:40:45.899Z,99291.44
2022-09-15T02:43:47.869Z,99296.62
2022-09-15T02:46:49.697Z,99299.81
2022-09-15T02:49:51.495Z,99289.69
2022-09-15T02:52:54.103Z,99295.66
2022-09-15T02:55:56.255Z,99294.13
2022-09-15T02:58:58.045Z,99291.94
2022-09-15T03:02:00.348Z,99288.47
2022-09-15T03:05:02.199Z,99281.88
2022-09-15T03:08:03.990Z,99281.84
2022-09-15T03:11:06.529Z,99282.84
2022-09-15T03:14:08.854Z,99286.03
2022-09-15T03:17:10.713Z,99282.97
2022-09-15T03:20:13.986Z,99277.22
2022-09-15T03:23:15.794Z,99284.87
2022-09-15T03:26:17.603Z,99278.81
2022-09-15T03:29:19.454Z,99280.28
2022-09-15T03:32:21.234Z,99296.09
2022-09-15T03:35:23.023Z,99288.06
2022-09-15T03:38:24.878Z,99278.69
2022-09-15T03:41:27.837Z,99276.87
2022-09-15T03:44:29.645Z,99283.72
2022-09-15T03:47:32.771Z,99282.22
2022-09-15T03:50:34.619Z,99272.16
2022-09-15T03:53:37.666Z,99275.19
2022-09-15T03:56:39.461Z,99288.25
2022-09-15T03:59:41.452Z,99281.53
2022-09-15T04:02:43.258Z,99279.72
2022-09-15T04:05:45.093Z,99285.75
2022-09-15T04:08:47.048Z,99289.75
2022-09-15T04:11:48.829Z,99287.25
2022-09-15T04:14:50.638Z,99300.66
2022-09-15T04:17:52.494Z,99305.97
2022-09-15T04:20:54.431Z,99309.91
2022-09-15T04:23:56.212Z,99302.00
2022-09-15T04:26:58.019Z,99303.66
2022-09-15T04:29:59.981Z,99298.13
2022-09-15T04:33:02.774Z,99300.31
2022-09-15T04:36:08.556Z,99314.91
2022-09-15T04:39:10.383Z,99325.97
2022-09-15T04:42:12.210Z,99333.22
2022-09-15T04:45:13.987Z,99337.84
2022-09-15T04:48:15.786Z,99328.66
2022-09-15T04:51:19.084Z,99328.69
2022-09-15T04:54:20.965Z,99314.81
2022-09-15T04:57:22.758Z,99316.47
2022-09-15T05:00:27.076Z,99306.03
2022-09-15T05:03:29.088Z,99304.53
2022-09-15T05:06:31.022Z,99310.19
2022-09-15T05:09:32.822Z,99306.06
2022-09-15T05:12:34.783Z,99309.88
2022-09-15T05:15:36.672Z,99321.13
2022-09-15T05:18:38.959Z,99312.38
2022-09-15T05:21:40.801Z,99322.97
2022-09-15T05:24:42.570Z,99332.31
2022-09-15T05:27:44.453Z,99350.41
2022-09-15T05:30:46.265Z,99361.97
2022-09-15T05:33:48.544Z,99358.13
2022-09-15T05:36:50.360Z,99363.31
2022-09-15T05:39:52.214Z,99373.81
2022-09-15T05:42:54.098Z,99375.06
2022-09-15T05:45:55.957Z,99375.25
2022-09-15T05:48:58.087Z,99366.84
2022-09-15T05:52:00.333Z,99381.25
2022-09-15T05:55:02.209Z,99371.25
2022-09-15T05:58:04.087Z,99370.84
2022-09-15T06:01:11.195Z,99366.28
2022-09-15T06:04:13.074Z,99366.78
2022-09-15T06:07:16.749Z,99358.06
2022-09-15T06:10:18.612Z,99354.31
2022-09-15T06:13:20.461Z,99358.44
2022-09-15T06:16:23.333Z,99362.56
2022-09-15T06:19:25.481Z,99357.12
2022-09-15T06:22:28.029Z,99349.16
2022-09-15T06:25:30.082Z,99350.78
2022-09-15T06:28:32.468Z,99362.50
2022-09-15T06:31:34.402Z,99378.97
2022-09-15T06:34:36.319Z,99389.94
2022-09-15T06:37:38.146Z,99388.69
2022-09-15T06:40:39.929Z,99384.25
2022-09-15T06:43:44.948Z,99380.56
2022-09-15T06:46:46.951Z,99387.06
2022-09-15T06:49:48.825Z,99395.97
2022-09-15T06:52:50.688Z,99392.44
2022-09-15T06:55:52.606Z,99400.78
2022-09-15T06:58:56.074Z,99404.38
2022-09-15T07:02:02.653Z,99406.03
2022-09-15T07:05:06.981Z,99409.53
2022-09-15T07:08:09.224Z,99403.03
2022-09-15T07:11:11.058Z,99394.56
2022-09-15T07:14:12.955Z,99405.72
2022-09-15T07:17:14.946Z,99427.91
2022-09-15T07:20:16.986Z,99420.44
2022-09-15T07:23:19.243Z,99423.84
2022-09-15T07:26:21.957Z,99424.53
2022-09-15T07:29:23.796Z,99422.22
2022-09-15T07:32:25.634Z,99423.72
2022-09-15T07:35:27.421Z,99423.97
2022-09-15T07:38:29.344Z,99416.25
2022-09-15T07:41:31.643Z,99411.66
2022-09-15T07:44:33.533Z,99420.00
2022-09-15T07:47:35.487Z,99417.56
2022-09-15T07:50:37.328Z,99418.06
2022-09-15T07:53:39.151Z,99423.22
2022-09-15T07:56:41.090Z,99427.63
2022-09-15T07:59:43.162Z,99429.69
2022-09-15T08:02:44.942Z,99421.72
2022-09-15T08:05:46.888Z,99429.16
2022-09-15T08:08:49.162Z,99434.84
2022-09-15T08:11:50.994Z,99428.56
2022-09-15T08:14:52.880Z,99418.72
2022-09-15T08:17:54.700Z,99430.56
2022-09-15T08:20:56.528Z,99426.12
2022-09-15T08:23:58.971Z,99429.41
2022-09-15T08:27:00.874Z,99428.53
2022-09-15T08:30:03.033Z,99422.94
2022-09-15T08:33:04.842Z,99427.06
2022-09-15T08:36:08.642Z,99424.09
2022-09-15T08:39:10.621Z,99411.47
2022-09-15T08:42:16.006Z,99399.06
2022-09-15T08:45:23.856Z,99396.28
2022-09-15T08:48:27.206Z,99399.28
2022-09-15T08:51:31.508Z,99398.56
2022-09-15T08:54:33.336Z,99409.78
2022-09-15T08:57:35.185Z,99400.78
2022-09-15T09:00:37.034Z,99397.31
2022-09-15T09:03:45.377Z,99394.28
2022-09-15T09:07:05.709Z,99372.12
2022-09-15T09:10:16.934Z,99370.94
2022-09-15T09:13:35.674Z,99365.34
2022-09-15T09:16:53.025Z,99363.38
2022-09-15T09:19:58.296Z,99365.50
2022-09-15T09:23:01.633Z,99358.72
2022-09-15T09:26:05.502Z,99347.34
2022-09-15T09:29:21.199Z,99346.31
2022-09-15T09:32:26.492Z,99335.34
2022-09-15T09:35:48.715Z,99342.19
2022-09-15T09:38:50.628Z,99353.81
2022-09-15T09:41:52.421Z,99347.78
2022-09-15T09:44:54.376Z,99339.47
2022-09-15T09:48:01.665Z,99352.47
2022-09-15T09:51:03.845Z,99355.09
2022-09-15T09:54:06.719Z,99350.00
2022-09-15T09:57:14.703Z,99340.00
2022-09-15T10:00:37.658Z,99337.78
2022-09-15T10:03:41.817Z,99332.28
2022-09-15T10:06:44.235Z,99334.41
2022-09-15T10:09:53.313Z,99310.81
2022-09-15T10:12:55.646Z,99299.06
2022-09-15T10:15:58.980Z,99305.53
2022-09-15T10:19:00.780Z,99300.63
2022-09-15T10:22:02.658Z,99286.88
2022-09-15T10:25:20.601Z,99283.34
2022-09-15T10:28:23.765Z,99272.00
2022-09-15T10:31:28.685Z,99257.66
2022-09-15T10:34:31.104Z,99256.59
2022-09-15T10:37:48.315Z,99265.56
2022-09-15T10:40:56.681Z,99257.22
2022-09-15T10:44:17.697Z,99256.22
2022-09-15T10:47:30.112Z,99272.53
2022-09-15T10:50:47.353Z,99274.78
2022-09-15T10:53:57.722Z,99279.72
2022-09-15T10:57:19.884Z,99274.88
2022-09-15T11:00:22.770Z,99277.91
2022-09-15T11:03:38.728Z,99269.19
2022-09-15T11:06:40.735Z,99262.31
2022-09-15T11:10:03.995Z,99266.88
2022-09-15T11:13:20.951Z,99266.53
2022-09-15T11:16:41.649Z,99261.31
2022-09-15T11:19:46.800Z,99255.16
2022-09-15T11:23:08.544Z,99261.53
2022-09-15T11:26:13.217Z,99273.16
2022-09-15T11:29:20.761Z,99264.25
2022-09-15T11:32:24.986Z,99263.78
2022-09-15T11:35:31.251Z,99267.66
2022-09-15T11:38:35.972Z,99265.94
2022-09-15T11:41:51.083Z,99251.12
2022-09-15T11:44:53.162Z,99255.81
2022-09-15T11:47:59.117Z,99236.28
2022-09-15T11:51:04.710Z,99220.19
2022-09-15T11:54:09.761Z,99204.81
2022-09-15T11:57:15.845Z,99195.28
2022-09-15T12:00:17.939Z,99194.00
2022-09-15T12:03:40.386Z,99186.66
2022-09-15T12:06:53.645Z,99194.91
2022-09-15T12:09:56.015Z,99201.50
2022-09-15T12:12:58.413Z,99192.41
2022-09-15T12:16:01.032Z,99210.91
2022-09-15T12:19:06.117Z,99211.25
2022-09-15T12:22:24.141Z,99216.09
2022-09-15T12:25:46.217Z,99210.00
2022-09-15T12:28:58.166Z,99200.13
2022-09-15T12:32:26.971Z,99201.22
2022-09-15T12:35:30.155Z,99199.34
2022-09-15T12:38:32.024Z,99186.78
2022-09-15T12:41:36.166Z,99180.97
2022-09-15T12:44:40.804Z,99183.09
2022-09-15T12:47:49.311Z,99181.66
2022-09-15T12:50:58.731Z,99178.66
2022-09-15T12:54:07.346Z,99162.66
2022-09-15T12:57:25.937Z,99141.81
2022-09-15T13:00:31.205Z,99160.31
2022-09-15T13:03:42.090Z,99185.69
2022-09-15T13:06:44.162Z,99187.56
2022-09-15T13:09:56.173Z,99216.09
2022-09-15T13:13:12.081Z,99278.03
2022-09-15T13:16:34.164Z,99335.53
2022-09-15T13:20:03.084Z,99256.03
2022-09-15T13:23:05.758Z,99258.94
2022-09-15T13:26:08.562Z,99240.16
2022-09-15T13:29:15.905Z,99228.78
2022-09-15T13:32:29.910Z,99229.31
2022-09-15T13:35:37.848Z,99229.72
2022-09-15T13:38:43.425Z,99237.41
2022-09-15T13:41:46.534Z,99259.44
2022-09-15T13:44:51.695Z,99250.25
2022-09-15T13:48:17.131Z,99234.41
2022-09-15T13:51:28.662Z,99227.12
2022-09-15T13:54:30.752Z,99228.75
2022-09-15T14:00:56.677Z,99241.16
2022-09-15T14:04:00.842Z,99246.59
2022-09-15T14:07:02.941Z,99219.91
2022-09-15T14:10:05.066Z,99216.81
2022-09-15T14:13:06.955Z,99235.09
2022-09-15T14:16:35.432Z,99244.88
2022-09-15T14:19:38.512Z,99210.56
2022-09-15T14:22:40.953Z,99208.59
2022-09-15T14:25:45.027Z,99212.03
2022-09-15T14:29:06.193Z,99210.06
2022-09-15T14:32:15.578Z,99197.84
2022-09-15T14:35:19.844Z,99221.44
2022-09-15T14:38:23.116Z,99240.19
2022-09-15T14:41:25.170Z,99249.44
2022-09-15T14:47:48.996Z,99275.69
2022-09-15T14:51:05.214Z,99258.16
2022-09-15T14:54:07.067Z,99255.72
2022-09-15T14:57:08.960Z,99246.25
2022-09-15T15:00:14.080Z,99264.97
2022-09-15T15:03:31.774Z,99268.22
2022-09-15T15:06:35.756Z,99283.81
2022-09-15T15:09:40.513Z,99270.37
2022-09-15T15:12:43.649Z,99258.06
2022-09-15T15:15:45.855Z,99253.00
2022-09-15T15:18:47.717Z,99258.22
2022-09-15T15:21:50.853Z,99265.09
2022-09-15T15:24:52.931Z,99244.91
2022-09-15T15:27:55.751Z,99236.22
2022-09-15T15:31:07.984Z,99214.47
2022-09-15T15:34:21.606Z,99224.22
2022-09-15T15:37:25.225Z,99211.78
2022-09-15T15:40:27.280Z,99246.25
2022-09-15T15:43:29.370Z,99278.16
2022-09-15T15:46:46.240Z,99272.75
2022-09-15T15:50:11.725Z,99251.41
2022-09-15T15:53:09.860Z,99253.13
2022-09-15T15:56:11.726Z,99244.03
2022-09-15T15:59:13.948Z,99226.66
2022-09-15T16:02:15.880Z,99222.34
2022-09-15T16:05:18.105Z,99234.03
2022-09-15T16:08:24.657Z,99222.09
2022-09-15T16:11:26.596Z,99209.63
2022-09-15T16:14:28.390Z,99192.00
2022-09-15T16:17:30.350Z,99187.22
2022-09-15T16:20:32.227Z,99180.81
2022-09-15T16:23:34.010Z,99170.06
2022-09-15T16:26:36.005Z,99167.00
2022-09-15T16:29:38.186Z,99163.56
2022-09-15T16:32:40.730Z,99163.41
2022-09-15T16:36:09.126Z,99181.22
2022-09-15T16:39:11.030Z,99173.22
2022-09-15T16:42:13.091Z,99189.38
2022-09-15T16:45:19.633Z,99171.31
2022-09-15T16:48:21.666Z,99169.16
2022-09-15T16:51:30.696Z,99186.34
2022-09-15T16:54:33.512Z,99204.53
2022-09-15T16:57:35.377Z,99218.78
2022-09-15T17:00:37.237Z,99214.25
2022-09-15T17:03:39.367Z,99200.97
2022-09-15T17:06:41.263Z,99204.59
2022-09-15T17:09:43.345Z,99201.31
2022-09-15T17:12:45.213Z,99205.91
2022-09-15T17:15:47.319Z,99216.31
2022-09-15T17:18:49.201Z,99217.06
2022-09-15T17:21:52.715Z,99225.03
2022-09-15T17:24:54.661Z,99212.09
2022-09-15T17:27:57.139Z,99212.00
2022-09-15T17:30:59.842Z,99216.72
2022-09-15T17:34:02.318Z,99210.91
2022-09-15T17:37:04.123Z,99208.44
2022-09-15T17:40:06.160Z,99200.87
2022-09-15T17:43:12.767Z,99191.81
2022-09-15T17:46:14.871Z,99187.69
2022-09-15T17:49:16.764Z,99190.19
2022-09-15T17:52:18.634Z,99197.41
2022-09-15T17:55:23.517Z,99194.41
2022-09-15T17:58:26.707Z,99194.19
2022-09-15T18:01:28.634Z,99194.22
2022-09-15T18:04:30.475Z,99194.41
2022-09-15T18:07:32.337Z,99192.81
2022-09-15T18:10:34.613Z,99207.97
2022-09-15T18:13:37.344Z,99199.66
2022-09-15T18:16:39.418Z,99203.44
2022-09-15T18:19:41.219Z,99206.03
2022-09-15T18:22:43.131Z,99207.94
2022-09-15T18:25:45.051Z,99199.75
2022-09-15T18:28:46.901Z,99209.06
2022-09-15T18:31:48.699Z,99218.84
2022-09-15T18:34:50.528Z,99213.75
2022-09-15T18:37:58.747Z,99229.88
2022-09-15T18:41:01.443Z,99214.72
2022-09-15T18:44:03.264Z,99205.47
2022-09-15T18:47:05.225Z,99208.34
2022-09-15T18:50:07.169Z,99229.22
2022-09-15T18:53:09.404Z,99231.34
2022-09-15T18:56:11.636Z,99227.81
2022-09-15T18:59:17.455Z,99233.53
2022-09-15T19:02:19.782Z,99240.91
2022-09-15T19:05:21.745Z,99241.06
2022-09-15T19:08:23.590Z,99239.47
2022-09-15T19:11:27.364Z,99248.59
2022-09-15T19:14:30.877Z,99259.16
2022-09-15T19:17:32.743Z,99256.25
2022-09-15T19:20:34.557Z,99245.38
2022-09-15T19:23:36.761Z,99244.66
2022-09-15T19:26:38.642Z,99245.13
2022-09-15T19:29:40.736Z,99248.06
2022-09-15T19:32:42.543Z,99238.53
2022-09-15T19:35:44.400Z,99257.19
2022-09-15T19:38:46.452Z,99267.34
2022-09-15T19:41:48.317Z,99266.12
2022-09-15T19:44:50.180Z,99260.75
2022-09-15T19:47:52.057Z,99262.78
2022-09-15T19:50:53.955Z,99263.00
2022-09-15T19:53:56.014Z,99263.19
2022-09-15T19:56:57.902Z,99267.78
2022-09-15T19:59:59.702Z,99268.06
2022-09-15T20:03:01.490Z,99280.75
2022-09-15T20:06:05.069Z,99269.59
2022-09-15T20:09:07.162Z,99266.63
2022-09-15T20:12:09.028Z,99279.50
2022-09-15T20:15:10.961Z,99277.47
2022-09-15T20:18:13.461Z,99279.94
2022-09-15T20:21:22.182Z,99285.53
2022-09-15T20:24:34.642Z,99274.56
2022-09-15T20:27:36.536Z,99286.88
2022-09-15T20:30:38.391Z,99302.91
2022-09-15T20:33:41.287Z,99300.44
2022-09-15T20:36:43.758Z,99294.78
2022-09-15T20:39:46.728Z,99296.94
2022-09-15T20:42:50.182Z,99312.31
2022-09-15T20:45:55.674Z,99309.34
2022-09-15T20:48:57.529Z,99310.56
2022-09-15T20:51:59.351Z,99314.06
2022-09-15T20:55:01.142Z,99326.81
2022-09-15T20:58:02.950Z,99337.19
2022-09-15T21:01:07.933Z,99344.34
2022-09-15T21:04:10.129Z,99338.34
2022-09-15T21:07:11.939Z,99330.59
2022-09-15T21:10:14.019Z,99341.25
2022-09-15T21:13:16.256Z,99337.75
2022-09-15T21:16:20.604Z,99348.44
2022-09-15T21:19:22.505Z,99347.19
2022-09-15T21:22:24.436Z,99349.16
2022-09-15T21:25:26.216Z,99341.44
2022-09-15T21:28:28.596Z,99332.78
2022-09-15T21:31:31.141Z,99333.25
2022-09-15T21:34:33.127Z,99341.53
2022-09-15T21:37:34.918Z,99354.19
2022-09-15T21:40:36.892Z,99343.56
2022-09-15T21:43:39.505Z,99345.56
2022-09-15T21:46:41.319Z,99339.34
2022-09-15T21:49:43.164Z,99345.94
2022-09-15T21:52:44.964Z,99349.12
2022-09-15T21:55:48.101Z,99358.44
2022-09-15T21:58:49.937Z,99368.87
2022-09-15T22:01:51.803Z,99377.41
2022-09-15T22:04:54.524Z,99382.56
2022-09-15T22:08:00.416Z,99395.88
2022-09-15T22:11:04.990Z,99398.56
2022-09-15T22:14:10.486Z,99406.44
2022-09-15T22:17:12.302Z,99416.31
2022-09-15T22:20:14.132Z,99413.09
2022-09-15T22:23:17.711Z,99412.41
2022-09-15T22:26:20.428Z,99412.50
2022-09-15T22:29:22.564Z,99425.06
2022-09-15T22:32:26.397Z,99417.81
2022-09-15T22:35:28.240Z,99422.00
2022-09-15T22:38:30.417Z,99418.31
2022-09-15T22:41:33.033Z,99433.91
2022-09-15T22:44:34.805Z,99436.94
2022-09-15T22:47:36.607Z,99442.94
2022-09-15T22:50:38.391Z,99443.66
2022-09-15T22:53:40.255Z,99441.47
2022-09-15T22:56:42.090Z,99457.59
2022-09-15T22:59:43.902Z,99460.28
2022-09-15T23:02:46.740Z,99465.75
2022-09-15T23:05:56.276Z,99472.78
2022-09-15T23:08:59.182Z,99485.47
2022-09-15T23:12:01.226Z,99489.28
2022-09-15T23:15:04.558Z,99493.69
2022-09-15T23:18:06.340Z,99503.91
2022-09-15T23:21:08.800Z,99508.28
2022-09-15T23:24:12.552Z,99509.28
2022-09-15T23:27:14.485Z,99510.88
2022-09-15T23:30:16.338Z,99516.53
2022-09-15T23:33:18.226Z,99512.06
2022-09-15T23:36:20.032Z,99511.38
2022-09-15T23:39:21.824Z,99518.56
2022-09-15T23:42:23.634Z,99507.13
2022-09-15T23:45:25.441Z,99505.09
2022-09-15T23:48:27.459Z,99512.69
2022-09-15T23:51:29.313Z,99520.19
2022-09-15T23:54:31.187Z,99508.97
2022-09-15T23:57:32.996Z,99525.25
